createdAt,value
2023-11-25T00:00:23.194Z,64.62402344
2023-11-25T00:01:25.211Z,64.41650391
2023-11-25T00:02:26.806Z,64.1784668
2023-11-25T00:03:28.313Z,64.07470703
2023-11-25T00:04:30.492Z,64.1784668
2023-11-25T00:05:32.057Z,64.1784668
2023-11-25T00:06:34.056Z,64.1784668
2023-11-25T00:07:35.615Z,64.38598633
2023-11-25T00:08:37.699Z,64.48974609
2023-11-25T00:09:39.119Z,64.59350586
2023-11-25T00:11:21.783Z,64.69726563
2023-11-25T00:12:13.299Z,64.59350586
2023-11-25T00:13:15.175Z,64.80102539
2023-11-25T00:14:16.860Z,64.90478516
2023-11-25T00:15:19.124Z,65.11230469
2023-11-25T00:16:21.168Z,65.00854492
2023-11-25T00:17:23.191Z,65.00854492
2023-11-25T00:18:24.753Z,65.11230469
2023-11-25T00:19:26.566Z,64.97802734
2023-11-25T00:20:28.140Z,65.49682617
2023-11-25T00:21:29.766Z,65.80810547
2023-11-25T00:22:31.599Z,66.015625
2023-11-25T00:23:33.128Z,66.11938477
2023-11-25T00:24:35.131Z,66.11938477
2023-11-25T00:25:36.686Z,65.91186523
2023-11-25T00:26:38.102Z,66.11938477
2023-11-25T00:28:10.350Z,67.18139648
2023-11-25T00:29:12.403Z,66.87011719
2023-11-25T00:30:14.251Z,66.87011719
2023-11-25T00:31:16.380Z,67.07763672
2023-11-25T00:32:18.105Z,67.41943359
2023-11-25T00:33:20.057Z,67.73071289
2023-11-25T00:34:22.163Z,67.62695313
2023-11-25T00:35:25.165Z,67.73071289
2023-11-25T00:36:26.725Z,67.83447266
2023-11-25T00:37:29.046Z,67.83447266
2023-11-25T00:38:30.676Z,67.83447266
2023-11-25T00:39:32.252Z,67.62695313
2023-11-25T00:40:33.564Z,67.62695313
2023-11-25T00:41:35.502Z,67.93823242
2023-11-25T00:42:37.135Z,68.14575195
2023-11-25T00:43:38.829Z,68.14575195
2023-11-25T00:45:11.859Z,68.04199219
2023-11-25T00:46:13.644Z,68.01147461
2023-11-25T00:47:15.204Z,67.90771484
2023-11-25T00:48:16.626Z,67.70019531
2023-11-25T00:49:18.722Z,67.73071289
2023-11-25T00:50:20.145Z,67.73071289
2023-11-25T00:51:21.862Z,68.04199219
2023-11-25T00:52:23.579Z,68.14575195
2023-11-25T00:53:25.178Z,68.24951172
2023-11-25T00:54:27.061Z,68.35327148
2023-11-25T00:55:28.652Z,68.66455078
2023-11-25T00:56:30.137Z,68.76831055
2023-11-25T00:57:31.657Z,68.97583008
2023-11-25T00:58:33.432Z,69.28710938
2023-11-25T00:59:35.094Z,69.28710938
2023-11-25T01:00:36.608Z,69.39086914
2023-11-25T01:01:38.406Z,70.00732422
2023-11-25T01:03:11.615Z,70.35522461
2023-11-25T01:04:13.192Z,70.45898438
2023-11-25T01:05:14.678Z,70.56274414
2023-11-25T01:06:16.654Z,70.56274414
2023-11-25T01:07:18.214Z,70.76416016
2023-11-25T01:08:19.939Z,70.97167969
2023-11-25T01:09:22.158Z,71.07543945
2023-11-25T01:10:23.683Z,70.97167969
2023-11-25T01:11:25.157Z,70.97167969
2023-11-25T01:12:26.596Z,71.07543945
2023-11-25T01:13:28.819Z,71.11206055
2023-11-25T01:14:29.813Z,71.52709961
2023-11-25T01:15:32.168Z,71.73461914
2023-11-25T01:16:33.769Z,71.73461914
2023-11-25T01:17:35.410Z,71.63085938
2023-11-25T01:18:37.050Z,71.63085938
2023-11-25T01:19:39.639Z,71.73461914
2023-11-25T01:21:12.135Z,71.94213867
2023-11-25T01:22:14.671Z,71.83837891
2023-11-25T01:23:16.191Z,71.94213867
2023-11-25T01:24:17.647Z,72.18017578
2023-11-25T01:25:19.681Z,72.49145508
2023-11-25T01:26:51.268Z,73.11401367
2023-11-25T01:28:25.207Z,73.21777344
2023-11-25T01:29:26.647Z,73.42529297
2023-11-25T01:30:28.607Z,73.52905273
2023-11-25T01:31:30.246Z,73.73657227
2023-11-25T01:32:31.951Z,73.6328125
2023-11-25T01:33:33.784Z,73.6328125
2023-11-25T01:34:35.998Z,73.73657227
2023-11-25T01:35:37.772Z,73.38867188
2023-11-25T01:37:10.946Z,73.28491211
2023-11-25T01:38:12.682Z,73.18115234
2023-11-25T01:39:13.656Z,73.18115234
2023-11-25T01:40:15.414Z,73.18115234
2023-11-25T01:41:17.152Z,73.38867188
2023-11-25T01:42:19.170Z,73.18115234
2023-11-25T01:43:20.723Z,73.42529297
2023-11-25T01:44:22.907Z,73.6328125
2023-11-25T01:45:24.727Z,73.84033203
2023-11-25T01:46:26.162Z,73.9440918
2023-11-25T01:47:28.139Z,74.04785156
2023-11-25T01:48:29.688Z,73.9074707
2023-11-25T01:49:32.308Z,74.01123047
2023-11-25T01:50:33.673Z,74.01123047
2023-11-25T01:51:35.680Z,73.69995117
2023-11-25T01:52:37.244Z,73.49243164
2023-11-25T01:53:38.922Z,73.07739258
2023-11-25T01:55:11.713Z,73.28491211
2023-11-25T01:56:13.638Z,73.18115234
2023-11-25T01:57:15.134Z,73.28491211
2023-11-25T01:58:16.933Z,73.59619141
2023-11-25T01:59:18.627Z,73.59619141
2023-11-25T02:00:20.505Z,73.49243164
2023-11-25T02:01:22.177Z,73.3581543
2023-11-25T02:02:23.846Z,73.3581543
2023-11-25T02:03:25.675Z,73.046875
2023-11-25T02:04:27.235Z,72.94311523
2023-11-25T02:05:28.390Z,72.83935547
2023-11-25T02:06:30.128Z,72.42431641
2023-11-25T02:07:32.112Z,72.32055664
2023-11-25T02:08:33.553Z,72.21679688
2023-11-25T02:09:36.090Z,71.90551758
2023-11-25T02:10:37.669Z,72.00927734
2023-11-25T02:12:10.642Z,72.25341797
2023-11-25T02:13:12.714Z,72.35717773
2023-11-25T02:14:14.651Z,72.1496582
2023-11-25T02:15:16.256Z,72.28393555
2023-11-25T02:16:17.565Z,72.69897461
2023-11-25T02:17:18.577Z,72.49145508
2023-11-25T02:18:19.840Z,72.59521484
2023-11-25T02:19:21.661Z,72.38769531
2023-11-25T02:20:23.654Z,72.38769531
2023-11-25T02:21:25.624Z,72.38769531
2023-11-25T02:22:27.180Z,72.59521484
2023-11-25T02:23:29.131Z,72.83935547
2023-11-25T02:24:30.629Z,72.7355957
2023-11-25T02:25:32.674Z,72.94311523
2023-11-25T02:26:34.171Z,72.94311523
2023-11-25T02:27:35.929Z,73.046875
2023-11-25T02:28:37.652Z,73.046875
2023-11-25T02:30:10.650Z,73.046875
2023-11-25T02:31:11.711Z,72.63183594
2023-11-25T02:32:14.324Z,73.046875
2023-11-25T02:33:16.186Z,73.046875
2023-11-25T02:34:17.200Z,72.94311523
2023-11-25T02:35:18.587Z,72.94311523
2023-11-25T02:36:20.668Z,72.83935547
2023-11-25T02:37:23.200Z,72.52807617
2023-11-25T02:38:24.103Z,72.52807617
2023-11-25T02:39:26.446Z,72.35107422
2023-11-25T02:40:28.115Z,72.55859375
2023-11-25T02:41:30.185Z,72.76611328
2023-11-25T02:42:31.608Z,72.7355957
2023-11-25T02:43:33.148Z,72.7355957
2023-11-25T02:44:34.699Z,72.7355957
2023-11-25T02:45:36.378Z,72.63183594
2023-11-25T02:47:09.696Z,72.52807617
2023-11-25T02:48:11.781Z,72.63183594
2023-11-25T02:49:13.186Z,72.7355957
2023-11-25T02:50:15.536Z,73.18115234
2023-11-25T02:51:17.156Z,73.38867188
2023-11-25T02:52:18.677Z,73.38867188
2023-11-25T02:53:20.462Z,73.49243164
2023-11-25T02:54:22.224Z,73.69995117
2023-11-25T02:55:24.667Z,73.80371094
2023-11-25T02:56:26.046Z,73.9074707
2023-11-25T02:57:28.046Z,73.9074707
2023-11-25T02:58:29.703Z,74.01123047
2023-11-25T02:59:31.954Z,74.01123047
2023-11-25T03:00:33.660Z,74.21875
2023-11-25T03:01:35.500Z,74.21875
2023-11-25T03:02:37.291Z,74.21875
2023-11-25T03:04:09.960Z,74.32250977
2023-11-25T03:05:11.649Z,74.42626953
2023-11-25T03:06:13.524Z,74.42626953
2023-11-25T03:07:15.352Z,74.42626953
2023-11-25T03:08:17.506Z,74.42626953
2023-11-25T03:09:19.126Z,74.21875
2023-11-25T03:10:20.665Z,74.11499023
2023-11-25T03:11:22.677Z,73.9074707
2023-11-25T03:12:24.143Z,73.80371094
2023-11-25T03:13:26.538Z,73.80371094
2023-11-25T03:14:28.112Z,73.69995117
2023-11-25T03:15:29.701Z,73.59619141
2023-11-25T03:16:32.264Z,73.69995117
2023-11-25T03:17:33.670Z,73.3581543
2023-11-25T03:18:35.659Z,73.25439453
2023-11-25T03:19:37.208Z,72.52807617
2023-11-25T03:21:09.487Z,72.32055664
2023-11-25T03:22:11.691Z,71.80175781
2023-11-25T03:23:13.657Z,71.69799805
2023-11-25T03:24:15.226Z,71.80175781
2023-11-25T03:25:17.090Z,71.86889648
2023-11-25T03:26:18.539Z,73.84033203
2023-11-25T03:27:20.664Z,73.9440918
2023-11-25T03:28:22.133Z,72.69897461
2023-11-25T03:29:23.653Z,71.66137695
2023-11-25T03:30:25.637Z,70.83129883
2023-11-25T03:31:27.125Z,70.93505859
2023-11-25T03:32:28.323Z,70.93505859
2023-11-25T03:33:29.405Z,70.6237793
2023-11-25T03:34:31.493Z,70.6237793
2023-11-25T03:35:33.246Z,70.52001953
2023-11-25T03:36:34.655Z,71.38671875
2023-11-25T03:37:36.711Z,73.59619141
2023-11-25T03:39:09.129Z,74.63378906
2023-11-25T03:40:11.664Z,75.46386719
2023-11-25T03:41:13.148Z,76.33056641
2023-11-25T03:42:44.961Z,77.16064453
2023-11-25T03:44:17.647Z,77.57568359
2023-11-25T03:45:19.665Z,78.09448242
2023-11-25T03:46:21.185Z,78.40576172
2023-11-25T03:47:22.936Z,78.61328125
2023-11-25T03:48:24.722Z,78.61328125
2023-11-25T03:49:27.028Z,78.82080078
2023-11-25T03:50:28.678Z,78.92456055
2023-11-25T03:51:30.216Z,78.82080078
2023-11-25T03:52:32.205Z,78.50952148
2023-11-25T03:53:33.602Z,78.61328125
2023-11-25T03:54:35.653Z,78.71704102
2023-11-25T03:55:38.067Z,78.09448242
2023-11-25T03:57:11.198Z,78.09448242
2023-11-25T03:58:12.626Z,77.99072266
2023-11-25T03:59:14.642Z,77.88696289
2023-11-25T04:00:16.595Z,77.78320313
2023-11-25T04:01:18.099Z,77.8503418
2023-11-25T04:02:19.860Z,77.8503418
2023-11-25T04:03:21.540Z,77.8503418
2023-11-25T04:04:23.162Z,77.74658203
2023-11-25T04:05:54.845Z,77.19726563
2023-11-25T04:07:28.248Z,77.09350586
2023-11-25T04:08:29.696Z,76.57470703
2023-11-25T04:09:31.626Z,76.26342773
2023-11-25T04:10:33.154Z,76.15966797
2023-11-25T04:11:35.103Z,76.3671875
2023-11-25T04:12:36.550Z,76.26342773
2023-11-25T04:14:09.626Z,76.3671875
2023-11-25T04:15:11.150Z,76.3671875
2023-11-25T04:16:13.004Z,76.57470703
2023-11-25T04:17:14.751Z,76.70898438
2023-11-25T04:18:16.502Z,76.78222656
2023-11-25T04:19:18.201Z,76.47094727
2023-11-25T04:20:19.646Z,76.3671875
2023-11-25T04:21:21.280Z,76.50146484
2023-11-25T04:22:22.759Z,76.60522461
2023-11-25T04:23:23.923Z,76.6784668
2023-11-25T04:24:25.543Z,76.6784668
2023-11-25T04:25:27.738Z,76.3671875
2023-11-25T04:26:29.557Z,76.15966797
2023-11-25T04:27:31.109Z,76.15966797
2023-11-25T04:28:33.124Z,76.15966797
2023-11-25T04:29:34.603Z,75.84838867
2023-11-25T04:30:36.282Z,75.95214844
2023-11-25T04:32:09.301Z,76.15966797
2023-11-25T04:33:11.175Z,76.0559082
2023-11-25T04:34:12.637Z,76.15966797
2023-11-25T04:35:14.634Z,76.0559082
2023-11-25T04:36:19.157Z,76.15966797
2023-11-25T04:37:18.578Z,76.26342773
2023-11-25T04:38:20.116Z,76.15966797
2023-11-25T04:39:22.166Z,76.15966797
2023-11-25T04:40:23.979Z,76.15966797
2023-11-25T04:41:25.670Z,76.15966797
2023-11-25T04:42:27.502Z,76.26342773
2023-11-25T04:43:29.186Z,76.3671875
2023-11-25T04:44:30.673Z,76.60522461
2023-11-25T04:45:32.624Z,76.6784668
2023-11-25T04:46:34.161Z,76.78222656
2023-11-25T04:47:36.684Z,76.78222656
2023-11-25T04:49:09.051Z,76.6784668
2023-11-25T04:50:11.627Z,76.60522461
2023-11-25T04:51:13.187Z,76.47094727
2023-11-25T04:52:15.188Z,76.50146484
2023-11-25T04:53:16.633Z,76.60522461
2023-11-25T04:54:18.636Z,76.60522461
2023-11-25T04:55:20.190Z,76.60522461
2023-11-25T04:56:21.786Z,76.91650391
2023-11-25T04:57:23.622Z,76.81274414
2023-11-25T04:58:25.303Z,76.81274414
2023-11-25T04:59:26.467Z,76.60522461
2023-11-25T05:00:28.089Z,76.3671875
2023-11-25T05:01:30.143Z,76.3671875
2023-11-25T05:02:31.875Z,76.47094727
2023-11-25T05:03:33.648Z,76.47094727
2023-11-25T05:04:35.800Z,76.26342773
2023-11-25T05:05:37.162Z,75.95214844
2023-11-25T05:07:10.165Z,76.0559082
2023-11-25T05:08:11.700Z,76.0559082
2023-11-25T05:09:13.561Z,76.0559082
2023-11-25T05:10:15.192Z,76.0559082
2023-11-25T05:11:16.665Z,75.87890625
2023-11-25T05:12:18.667Z,75.87890625
2023-11-25T05:13:20.106Z,75.56762695
2023-11-25T05:14:21.918Z,75.67138672
2023-11-25T05:15:23.971Z,75.67138672
2023-11-25T05:16:25.543Z,75.56762695
2023-11-25T05:17:27.456Z,75.46386719
2023-11-25T05:18:29.604Z,75.67138672
2023-11-25T05:19:31.625Z,75.87890625
2023-11-25T05:20:33.368Z,75.98266602
2023-11-25T05:21:35.198Z,76.08642578
2023-11-25T05:23:39.212Z,75.87890625
2023-11-25T05:25:12.615Z,75.98266602
2023-11-25T05:26:14.142Z,76.08642578
2023-11-25T05:27:15.061Z,76.19018555
2023-11-25T05:28:16.750Z,76.39770508
2023-11-25T05:29:18.647Z,76.19018555
2023-11-25T05:30:20.513Z,76.08642578
2023-11-25T05:31:22.164Z,76.29394531
2023-11-25T05:32:23.694Z,76.50146484
2023-11-25T05:33:25.336Z,76.39770508
2023-11-25T05:34:27.164Z,76.39770508
2023-11-25T05:35:29.160Z,76.29394531
2023-11-25T05:36:31.299Z,76.19018555
2023-11-25T05:37:33.512Z,76.08642578
2023-11-25T05:38:34.547Z,75.77514648
2023-11-25T05:39:36.130Z,75.98266602
2023-11-25T05:41:09.115Z,75.98266602
2023-11-25T05:42:10.642Z,75.95214844
2023-11-25T05:43:12.722Z,75.95214844
2023-11-25T05:44:14.110Z,75.84838867
2023-11-25T05:45:15.908Z,75.53710938
2023-11-25T05:46:17.729Z,75.43334961
2023-11-25T05:47:19.549Z,75.22583008
2023-11-25T05:48:21.123Z,75.22583008
2023-11-25T05:49:22.678Z,75.08544922
2023-11-25T05:50:24.019Z,74.56665039
2023-11-25T05:51:26.081Z,74.46289063
2023-11-25T05:52:28.078Z,74.35913086
2023-11-25T05:53:29.612Z,74.35913086
2023-11-25T05:54:31.456Z,74.35913086
2023-11-25T05:55:33.081Z,74.35913086
2023-11-25T05:56:34.565Z,74.35913086
2023-11-25T05:57:36.837Z,74.01123047
2023-11-25T05:59:09.952Z,73.69995117
2023-11-25T06:00:11.631Z,73.84033203
2023-11-25T06:01:13.597Z,73.6328125
2023-11-25T06:02:15.704Z,73.6328125
2023-11-25T06:03:17.758Z,73.6328125
2023-11-25T06:04:21.930Z,73.9440918
2023-11-25T06:05:21.238Z,74.15161133
2023-11-25T06:06:23.138Z,74.35913086
2023-11-25T06:07:24.793Z,74.46289063
2023-11-25T06:08:26.835Z,74.46289063
2023-11-25T06:09:28.654Z,74.35913086
2023-11-25T06:10:30.621Z,74.46289063
2023-11-25T06:12:02.727Z,74.46289063
2023-11-25T06:13:35.895Z,74.25537109
2023-11-25T06:15:08.266Z,74.04785156
2023-11-25T06:16:10.185Z,73.73657227
2023-11-25T06:17:12.094Z,73.01025391
2023-11-25T06:18:14.814Z,73.01025391
2023-11-25T06:19:15.522Z,72.90649414
2023-11-25T06:20:17.536Z,73.21777344
2023-11-25T06:21:19.125Z,73.42529297
2023-11-25T06:22:21.166Z,73.42529297
2023-11-25T06:23:23.123Z,73.11401367
2023-11-25T06:24:24.801Z,72.90649414
2023-11-25T06:25:27.313Z,72.59521484
2023-11-25T06:26:29.162Z,72.38769531
2023-11-25T06:27:30.647Z,72.59521484
2023-11-25T06:28:32.691Z,72.59521484
2023-11-25T06:29:34.094Z,72.38769531
2023-11-25T06:30:35.984Z,72.59521484
2023-11-25T06:32:09.147Z,72.80273438
2023-11-25T06:33:10.985Z,72.59521484
2023-11-25T06:34:12.862Z,72.49145508
2023-11-25T06:35:14.485Z,72.18017578
2023-11-25T06:36:16.199Z,71.76513672
2023-11-25T06:37:17.676Z,71.59423828
2023-11-25T06:38:19.175Z,71.49047852
2023-11-25T06:39:20.647Z,71.38671875
2023-11-25T06:40:22.672Z,71.28295898
2023-11-25T06:41:24.326Z,71.49047852
2023-11-25T06:42:26.129Z,71.59423828
2023-11-25T06:43:27.677Z,71.49047852
2023-11-25T06:44:29.396Z,71.28295898
2023-11-25T06:45:31.123Z,70.97167969
2023-11-25T06:46:32.609Z,70.86791992
2023-11-25T06:47:35.171Z,70.55664063
2023-11-25T06:49:08.528Z,70.76416016
2023-11-25T06:50:10.628Z,70.97167969
2023-11-25T06:51:12.136Z,70.76416016
2023-11-25T06:52:14.251Z,70.66040039
2023-11-25T06:53:15.659Z,70.14160156
2023-11-25T06:54:17.878Z,70.0378418
2023-11-25T06:55:19.665Z,69.83032227
2023-11-25T06:56:21.699Z,69.93408203
2023-11-25T06:57:23.263Z,69.93408203
2023-11-25T06:58:25.139Z,69.83032227
2023-11-25T06:59:27.134Z,69.79370117
2023-11-25T07:00:28.321Z,69.68994141
2023-11-25T07:01:30.695Z,69.06738281
2023-11-25T07:02:32.742Z,68.85986328
2023-11-25T07:03:34.205Z,68.44482422
2023-11-25T07:04:35.653Z,68.68896484
2023-11-25T07:06:09.153Z,68.89648438
2023-11-25T07:07:10.669Z,68.89648438
2023-11-25T07:08:12.600Z,68.79272461
2023-11-25T07:09:14.164Z,69.00024414
2023-11-25T07:10:16.614Z,69.00024414
2023-11-25T07:11:18.126Z,69.31152344
2023-11-25T07:12:19.654Z,69.20776367
2023-11-25T07:13:21.675Z,69.10400391
2023-11-25T07:14:23.169Z,69.10400391
2023-11-25T07:15:25.379Z,69.20776367
2023-11-25T07:16:27.758Z,69.20776367
2023-11-25T07:17:30.215Z,69.27490234
2023-11-25T07:18:31.703Z,69.37866211
2023-11-25T07:19:33.634Z,69.27490234
2023-11-25T07:20:35.103Z,69.06738281
2023-11-25T07:22:07.938Z,69.17114258
2023-11-25T07:23:09.620Z,69.06738281
2023-11-25T07:24:11.162Z,69.27490234
2023-11-25T07:25:13.387Z,69.06738281
2023-11-25T07:26:14.638Z,69.06738281
2023-11-25T07:27:16.636Z,68.96362305
2023-11-25T07:28:18.317Z,68.65234375
2023-11-25T07:29:20.556Z,68.44482422
2023-11-25T07:30:22.184Z,68.54858398
2023-11-25T07:31:23.217Z,68.44482422
2023-11-25T07:32:25.030Z,68.41430664
2023-11-25T07:33:26.735Z,68.31054688
2023-11-25T07:34:28.937Z,68.41430664
2023-11-25T07:35:30.699Z,68.72558594
2023-11-25T07:36:32.541Z,68.93310547
2023-11-25T07:37:34.409Z,71.76513672
2023-11-25T07:39:06.867Z,72.80273438
2023-11-25T07:40:09.651Z,73.52905273
2023-11-25T07:41:11.613Z,73.73657227
2023-11-25T07:42:13.125Z,74.04785156
2023-11-25T07:43:15.028Z,74.46289063
2023-11-25T07:44:16.625Z,74.70703125
2023-11-25T07:45:18.994Z,74.81079102
2023-11-25T07:46:20.779Z,74.70703125
2023-11-25T07:47:22.605Z,74.67041016
2023-11-25T07:48:53.764Z,74.60327148
2023-11-25T07:50:26.826Z,74.60327148
2023-11-25T07:51:28.164Z,74.39575195
2023-11-25T07:52:29.658Z,74.18823242
2023-11-25T07:53:31.774Z,74.39575195
2023-11-25T07:54:33.597Z,74.35913086
2023-11-25T07:55:35.669Z,74.04785156
2023-11-25T07:57:08.165Z,74.04785156
2023-11-25T07:58:10.127Z,73.9440918
2023-11-25T07:59:11.086Z,73.69995117
2023-11-25T08:00:13.058Z,73.28491211
2023-11-25T08:01:14.628Z,73.38867188
2023-11-25T08:02:16.312Z,73.28491211
2023-11-25T08:03:17.706Z,73.07739258
2023-11-25T08:04:19.329Z,72.87597656
2023-11-25T08:05:21.805Z,72.4609375
2023-11-25T08:06:24.660Z,72.4609375
2023-11-25T08:07:25.084Z,72.4609375
2023-11-25T08:08:26.624Z,72.56469727
2023-11-25T08:09:28.134Z,72.7722168
2023-11-25T08:10:30.235Z,72.4609375
2023-11-25T08:11:31.732Z,72.7722168
2023-11-25T08:12:32.950Z,72.87597656
2023-11-25T08:13:34.677Z,72.87597656
2023-11-25T08:15:07.653Z,72.7722168
2023-11-25T08:16:09.189Z,72.87597656
2023-11-25T08:17:11.324Z,73.21777344
2023-11-25T08:18:12.717Z,73.11401367
2023-11-25T08:19:14.608Z,73.3215332
2023-11-25T08:20:16.153Z,73.6328125
2023-11-25T08:21:17.614Z,73.84033203
2023-11-25T08:22:19.705Z,73.9440918
2023-11-25T08:23:21.156Z,73.9440918
2023-11-25T08:24:22.892Z,73.84033203
2023-11-25T08:25:24.735Z,73.84033203
2023-11-25T08:26:26.122Z,73.73657227
2023-11-25T08:27:58.293Z,73.73657227
2023-11-25T08:29:31.539Z,73.9440918
2023-11-25T08:30:33.112Z,74.04785156
2023-11-25T08:31:34.709Z,74.15161133
2023-11-25T08:33:07.152Z,74.5300293
2023-11-25T08:34:09.094Z,74.98168945
2023-11-25T08:35:11.262Z,75.08544922
2023-11-25T08:36:12.777Z,75.18920898
2023-11-25T08:37:14.617Z,75.39672852
2023-11-25T08:38:16.176Z,75.50048828
2023-11-25T08:39:17.910Z,75.70800781
2023-11-25T08:40:19.727Z,75.91552734
2023-11-25T08:41:21.147Z,76.12304688
2023-11-25T08:42:23.096Z,76.12304688
2023-11-25T08:43:54.787Z,78.05786133
2023-11-25T08:45:28.654Z,79.91943359
2023-11-25T08:46:30.199Z,78.68041992
2023-11-25T08:47:32.151Z,77.74658203
2023-11-25T08:48:33.671Z,77.02026367
2023-11-25T08:50:06.703Z,77.02026367
2023-11-25T08:51:09.198Z,77.02026367
2023-11-25T08:52:09.891Z,76.91650391
2023-11-25T08:53:11.631Z,77.12402344
2023-11-25T08:54:13.534Z,77.5390625
2023-11-25T08:55:15.120Z,78.88793945
2023-11-25T08:56:16.626Z,78.78417969
2023-11-25T08:57:18.716Z,78.78417969
2023-11-25T08:58:20.601Z,79.19921875
2023-11-25T08:59:22.646Z,80.95703125
2023-11-25T09:00:24.123Z,80.43823242
2023-11-25T09:01:26.622Z,79.40673828
2023-11-25T09:02:28.698Z,78.78417969
2023-11-25T09:03:30.482Z,78.57666016
2023-11-25T09:04:32.084Z,78.47290039
2023-11-25T09:05:33.677Z,78.05786133
2023-11-25T09:07:06.636Z,78.05786133
2023-11-25T09:08:08.163Z,78.16162109
2023-11-25T09:09:09.884Z,78.30200195
2023-11-25T09:10:11.623Z,78.50952148
2023-11-25T09:11:13.656Z,78.82080078
2023-11-25T09:12:15.643Z,78.92456055
2023-11-25T09:13:17.579Z,79.13208008
2023-11-25T09:14:19.140Z,79.23583984
2023-11-25T09:15:20.633Z,79.23583984
2023-11-25T09:16:22.218Z,79.23583984
2023-11-25T09:17:23.702Z,79.13208008
2023-11-25T09:18:24.945Z,79.02832031
2023-11-25T09:19:26.717Z,78.92456055
2023-11-25T09:20:28.908Z,80.12695313
2023-11-25T09:21:30.606Z,81.57958984
2023-11-25T09:22:32.795Z,82.9284668
2023-11-25T09:23:34.569Z,80.81665039
2023-11-25T09:25:07.649Z,79.67529297
2023-11-25T09:26:09.111Z,78.85131836
2023-11-25T09:27:10.956Z,78.4362793
2023-11-25T09:28:12.506Z,78.125
2023-11-25T09:29:15.561Z,78.26538086
2023-11-25T09:30:17.140Z,78.68041992
2023-11-25T09:31:18.642Z,79.02832031
2023-11-25T09:32:20.827Z,79.33959961
2023-11-25T09:33:23.094Z,79.74853516
2023-11-25T09:34:25.187Z,79.89501953
2023-11-25T09:35:26.638Z,80.10253906
2023-11-25T09:36:28.620Z,79.58374023
2023-11-25T09:37:30.340Z,79.72412109
2023-11-25T09:38:32.473Z,80.03540039
2023-11-25T09:39:35.113Z,80.34667969
2023-11-25T09:41:07.953Z,80.13916016
2023-11-25T09:42:09.750Z,80.13916016
2023-11-25T09:43:11.919Z,79.93164063
2023-11-25T09:44:13.624Z,80.13916016
2023-11-25T09:45:15.483Z,80.20629883
2023-11-25T09:46:16.489Z,79.9987793
2023-11-25T09:47:17.772Z,79.79125977
2023-11-25T09:48:19.649Z,78.75366211
2023-11-25T09:49:21.607Z,78.64990234
2023-11-25T09:50:23.612Z,78.40576172
2023-11-25T09:51:25.142Z,78.19824219
2023-11-25T09:52:27.181Z,78.19824219
2023-11-25T09:53:28.646Z,78.09448242
2023-11-25T09:54:32.594Z,77.95410156
2023-11-25T09:55:32.224Z,77.95410156
2023-11-25T09:56:33.883Z,77.8503418
2023-11-25T09:58:06.636Z,77.8137207
2023-11-25T09:59:08.818Z,77.91748047
2023-11-25T10:00:10.726Z,78.02124023
2023-11-25T10:01:11.861Z,78.02124023
2023-11-25T10:02:13.725Z,78.125
2023-11-25T10:03:15.628Z,78.125
2023-11-25T10:04:17.266Z,78.19213867
2023-11-25T10:05:18.645Z,78.19213867
2023-11-25T10:06:20.607Z,78.19213867
2023-11-25T10:07:22.210Z,78.19213867
2023-11-25T10:08:24.508Z,77.98461914
2023-11-25T10:09:26.153Z,77.94799805
2023-11-25T10:10:28.240Z,77.94799805
2023-11-25T10:11:29.668Z,77.74047852
2023-11-25T10:12:32.238Z,77.63671875
2023-11-25T10:13:34.139Z,76.91040039
2023-11-25T10:15:07.724Z,76.77612305
2023-11-25T10:16:09.210Z,76.46484375
2023-11-25T10:17:11.105Z,76.46484375
2023-11-25T10:18:12.603Z,76.15356445
2023-11-25T10:19:14.607Z,75.94604492
2023-11-25T10:20:17.660Z,75.84228516
2023-11-25T10:21:17.899Z,75.84228516
2023-11-25T10:22:19.767Z,75.53100586
2023-11-25T10:23:21.982Z,75.42724609
2023-11-25T10:24:23.644Z,75.1159668
2023-11-25T10:25:25.392Z,75.01831055
2023-11-25T10:26:27.075Z,74.77416992
2023-11-25T10:27:28.560Z,74.56665039
2023-11-25T10:28:30.406Z,74.25537109
2023-11-25T10:29:33.150Z,74.04785156
2023-11-25T10:31:05.910Z,74.15161133
2023-11-25T10:32:08.124Z,74.25537109
2023-11-25T10:33:10.100Z,74.25537109
2023-11-25T10:34:11.706Z,74.18823242
2023-11-25T10:35:13.616Z,74.39575195
2023-11-25T10:36:15.141Z,74.60327148
2023-11-25T10:37:19.106Z,74.49951172
2023-11-25T10:38:18.724Z,74.39575195
2023-11-25T10:39:20.189Z,74.39575195
2023-11-25T10:40:22.187Z,74.84130859
2023-11-25T10:41:23.645Z,75.36010742
2023-11-25T10:42:25.652Z,75.46386719
2023-11-25T10:43:58.694Z,76.08642578
2023-11-25T10:45:30.957Z,76.60522461
2023-11-25T10:46:32.614Z,76.70898438
2023-11-25T10:48:06.163Z,76.70898438
2023-11-25T10:49:07.612Z,76.63574219
2023-11-25T10:50:09.525Z,76.84326172
2023-11-25T10:51:11.181Z,76.94702148
2023-11-25T10:52:12.660Z,77.11791992
2023-11-25T10:53:14.437Z,77.32543945
2023-11-25T10:54:16.115Z,77.22167969
2023-11-25T10:55:17.652Z,77.32543945
2023-11-25T10:56:19.452Z,77.53295898
2023-11-25T10:57:21.184Z,77.11791992
2023-11-25T10:58:23.889Z,76.50146484
2023-11-25T10:59:25.584Z,75.36010742
2023-11-25T11:00:27.168Z,74.84130859
2023-11-25T11:01:29.160Z,74.63378906
2023-11-25T11:02:31.714Z,74.5300293
2023-11-25T11:03:33.637Z,74.32250977
2023-11-25T11:05:06.154Z,73.70605469
2023-11-25T11:06:38.233Z,73.18725586
2023-11-25T11:08:11.239Z,72.7722168
2023-11-25T11:09:13.026Z,72.7722168
2023-11-25T11:10:14.609Z,72.97973633
2023-11-25T11:11:16.217Z,72.66845703
2023-11-25T11:12:18.831Z,72.97973633
2023-11-25T11:13:20.578Z,73.29101563
2023-11-25T11:14:21.508Z,72.66845703
2023-11-25T11:15:24.420Z,73.18725586
2023-11-25T11:16:25.522Z,73.39477539
2023-11-25T11:17:26.533Z,73.29101563
2023-11-25T11:18:28.194Z,73.66943359
2023-11-25T11:19:30.132Z,74.18823242
2023-11-25T11:20:32.623Z,73.25439453
2023-11-25T11:22:04.866Z,72.74169922
2023-11-25T11:23:06.539Z,72.32666016
2023-11-25T11:24:08.243Z,71.77734375
2023-11-25T11:25:11.124Z,70.84350586
2023-11-25T11:26:12.619Z,70.63598633
2023-11-25T11:27:15.795Z,70.53222656
2023-11-25T11:28:16.103Z,70.91674805
2023-11-25T11:29:17.045Z,71.42944336
2023-11-25T11:30:17.927Z,71.22192383
2023-11-25T11:31:19.930Z,70.29418945
2023-11-25T11:32:21.702Z,70.47119141
2023-11-25T11:33:23.611Z,70.77636719
2023-11-25T11:34:25.109Z,70.64208984
2023-11-25T11:35:26.611Z,70.43457031
2023-11-25T11:36:28.457Z,69.6105957
2023-11-25T11:37:30.421Z,68.88427734
2023-11-25T11:38:32.420Z,66.37573242
2023-11-25T11:40:05.196Z,63.20800781
2023-11-25T11:41:07.388Z,62.89672852